Time;durP1;ratioP1;P1;durP2;ratioP2;P2;SDS_P1;SDS_P2;PMS_P1;PMS_P2;Temp;Humidity;BMP_temperature;BMP_pressure;BME280_temperature;BME280_humidity;BME280_pressure;Samples;Min_cycle;Max_cycle;Signal;HPM_P1;HPM_P2
2023/11/03 00:01:02;;;;;;;1999.90;999.90;;;;;;;12.89;87.35;97639.28;10251466;28;20086;-68
2023/11/03 00:06:05;;;;;;;1999.90;999.90;;;;;;;12.83;83.85;97646.88;10250145;28;20093;-68
2023/11/03 00:11:07;;;;;;;1999.90;999.90;;;;;;;12.63;83.41;97643.13;10249853;29;20511;-68
2023/11/03 00:16:09;;;;;;;1999.90;999.90;;;;;;;12.44;83.43;97650.50;10250253;28;20130;-68
2023/11/03 00:21:12;;;;;;;1999.90;999.90;;;;;;;12.76;84.13;97666.13;10250846;28;20055;-68
2023/11/03 00:26:14;;;;;;;1999.90;999.90;;;;;;;12.91;83.04;97658.28;10233637;28;20047;-68
2023/11/03 00:31:17;;;;;;;1999.90;999.90;;;;;;;12.38;83.99;97674.81;10250549;28;20053;-68
2023/11/03 00:36:19;;;;;;;1999.90;999.90;;;;;;;13.07;80.73;97666.00;10250271;28;20089;-68
2023/11/03 00:41:22;;;;;;;1999.90;999.90;;;;;;;12.85;81.28;97669.50;10249078;29;20047;-68
2023/11/03 00:46:24;;;;;;;1999.90;999.90;;;;;;;12.75;81.77;97664.50;10249483;28;20051;-68
2023/11/03 00:51:27;;;;;;;1999.90;999.90;;;;;;;12.77;81.81;97673.03;10248591;29;20138;-68
2023/11/03 00:56:30;;;;;;;1999.90;999.90;;;;;;;13.02;80.75;97678.84;10248618;28;20142;-68
2023/11/03 01:01:32;;;;;;;1999.90;999.90;;;;;;;12.51;82.44;97686.53;10248509;29;20047;-68
2023/11/03 01:06:35;;;;;;;1999.90;999.90;;;;;;;12.80;82.15;97704.97;10247745;28;20536;-68
2023/11/03 01:11:37;;;;;;;1999.90;999.90;;;;;;;13.04;81.36;97687.34;10249381;28;20055;-68
2023/11/03 01:16:41;;;;;;;1999.90;999.90;;;;;;;12.66;84.33;97699.69;10249081;28;20134;-68
2023/11/03 01:21:45;;;;;;;1999.90;999.90;;;;;;;12.81;82.37;97700.56;10249105;28;20054;-68
2023/11/03 01:26:47;;;;;;;1999.90;999.90;;;;;;;13.18;81.23;97712.03;10248927;28;20053;-68
2023/11/03 01:31:49;;;;;;;1999.90;999.90;;;;;;;12.87;83.92;97722.66;10248146;28;20051;-68
2023/11/03 01:36:52;;;;;;;1999.90;999.90;;;;;;;12.69;84.14;97715.91;10248520;28;20057;-68
2023/11/03 01:41:54;;;;;;;1999.90;999.90;;;;;;;12.38;81.72;97722.03;10248511;28;20059;-68
2023/11/03 01:46:57;;;;;;;1999.90;999.90;;;;;;;12.86;83.06;97727.09;10248829;28;20047;-68
2023/11/03 01:51:59;;;;;;;1999.90;999.90;;;;;;;13.13;82.40;97722.22;10247811;28;20154;-68
2023/11/03 01:57:02;;;;;;;1999.90;999.90;;;;;;;12.63;84.18;97725.31;10246917;28;20125;-70
2023/11/03 02:02:06;;;;;;;1999.90;999.90;;;;;;;12.74;83.35;97724.09;10246225;29;20528;-68
2023/11/03 02:07:08;;;;;;;1999.90;999.90;;;;;;;12.66;83.51;97721.53;10273272;23;20059;-68
2023/11/03 02:12:11;;;;;;;1999.90;999.90;;;;;;;12.97;83.97;97739.78;10277417;28;20471;-66
2023/11/03 02:17:13;;;;;;;1999.90;999.90;;;;;;;12.67;82.83;97741.50;10293943;28;20053;-66
2023/11/03 02:22:16;;;;;;;1999.90;999.90;;;;;;;12.54;87.51;97746.53;10277388;28;20054;-68
2023/11/03 02:27:20;;;;;;;1999.90;999.90;;;;;;;12.71;82.49;97740.19;10276640;28;20467;-68
2023/11/03 02:32:22;;;;;;;1999.90;999.90;;;;;;;12.65;84.15;97746.13;10276389;28;20506;-68
2023/11/03 02:37:25;;;;;;;1999.90;999.90;;;;;;;12.81;84.50;97748.63;10293332;28;20411;-68
2023/11/03 02:42:27;;;;;;;1999.90;999.90;;;;;;;12.57;83.22;97754.06;10260346;28;20058;-68
2023/11/03 02:47:30;;;;;;;1999.90;999.90;;;;;;;12.48;82.90;97769.03;10293752;28;20125;-68
2023/11/03 02:52:32;;;;;;;1999.90;999.90;;;;;;;13.23;82.53;97764.00;10293491;28;20449;-68
2023/11/03 02:57:34;;;;;;;1999.90;999.90;;;;;;;12.86;80.47;97778.78;10292737;28;20510;-68
2023/11/03 03:02:37;;;;;;;1999.90;999.90;;;;;;;12.83;81.56;97777.34;10276147;28;20062;-68
2023/11/03 03:07:45;;;;;;;1999.90;999.90;;;;;;;12.99;80.16;97773.75;10292520;28;20113;-68
2023/11/03 03:12:47;;;;;;;1999.90;999.90;;;;;;;13.01;78.80;97779.63;10292362;28;20062;-68
2023/11/03 03:17:50;;;;;;;1999.90;999.90;;;;;;;12.75;81.33;97769.53;10275177;28;20484;-67
2023/11/03 03:22:53;;;;;;;1999.90;999.90;;;;;;;12.78;80.01;97775.22;10274769;28;20517;-68
2023/11/03 03:27:55;;;;;;;1999.90;999.90;;;;;;;12.73;80.25;97784.63;10291983;28;20568;-68
2023/11/03 03:32:58;;;;;;;1999.90;999.90;;;;;;;13.08;77.18;97795.50;10275354;28;20054;-68
2023/11/03 03:38:01;;;;;;;1999.90;999.90;;;;;;;13.01;77.89;97811.13;10292638;28;20054;-68
2023/11/03 03:43:03;;;;;;;1999.90;999.90;;;;;;;13.42;78.19;97810.81;10291978;28;20057;-68
2023/11/03 03:48:05;;;;;;;1999.90;999.90;;;;;;;13.30;77.30;97813.03;10274733;28;20101;-68
2023/11/03 03:53:08;;;;;;;1999.90;999.90;;;;;;;12.97;77.54;97826.44;10274519;28;20058;-68
2023/11/03 03:58:10;;;;;;;1999.90;999.90;;;;;;;12.94;77.11;97828.59;10290829;28;20073;-68
2023/11/03 04:03:12;;;;;;;1999.90;999.90;;;;;;;12.81;77.85;97843.13;10274865;28;20134;-67
2023/11/03 04:08:15;;;;;;;1999.90;999.90;;;;;;;12.88;78.01;97845.03;10290868;28;20495;-68
2023/11/03 04:13:17;;;;;;;1999.90;999.90;;;;;;;12.77;79.60;97856.78;10290435;28;20055;-68
2023/11/03 04:18:19;;;;;;;1999.90;999.90;;;;;;;12.78;80.63;97866.31;10273220;28;20410;-68
2023/11/03 04:23:22;;;;;;;1999.90;999.90;;;;;;;12.98;79.51;97880.59;10290754;28;20062;-68
2023/11/03 04:28:24;;;;;;;1999.90;999.90;;;;;;;12.85;83.04;97877.75;10290467;28;20495;-68
2023/11/03 04:33:27;;;;;;;1999.90;999.90;;;;;;;12.96;82.15;97868.63;10289677;28;20060;-68
2023/11/03 04:38:29;;;;;;;1999.90;999.90;;;;;;;12.75;85.73;97864.03;10290633;28;20051;-68
2023/11/03 04:43:38;;;;;;;1999.90;999.90;;;;;;;12.46;85.39;97876.00;10272997;28;20061;-68
2023/11/03 04:48:41;;;;;;;1999.90;999.90;;;;;;;12.81;84.09;97871.22;10274257;28;20074;-68
2023/11/03 04:53:44;;;;;;;1999.90;999.90;;;;;;;12.62;86.16;97864.56;10272641;28;20134;-68
2023/11/03 04:58:47;;;;;;;1999.90;999.90;;;;;;;12.86;84.93;97876.75;10272417;28;20061;-68
2023/11/03 05:03:49;;;;;;;1999.90;999.90;;;;;;;12.54;86.21;97859.38;10289462;28;20061;-68
2023/11/03 05:08:51;;;;;;;1999.90;999.90;;;;;;;12.61;85.18;97883.97;10271542;28;20169;-68
2023/11/03 05:13:55;;;;;;;1999.90;999.90;;;;;;;12.29;87.38;97880.50;10272126;28;20061;-68
2023/11/03 05:18:57;;;;;;;1999.90;999.90;;;;;;;12.85;88.14;97879.56;10271831;28;20061;-68
2023/11/03 05:24:00;;;;;;;1999.90;999.90;;;;;;;12.89;83.77;97886.88;10288886;28;20061;-68
2023/11/03 05:29:03;;;;;;;1999.90;999.90;;;;;;;12.74;86.65;97892.09;10288175;28;20077;-68
2023/11/03 05:34:20;;;;;;;1999.90;999.90;;;;;;;13.02;84.11;97902.06;10288593;28;20096;-68
2023/11/03 05:39:23;;;;;;;1999.90;999.90;;;;;;;12.89;85.97;97893.97;10270886;28;20066;-68
2023/11/03 05:44:26;;;;;;;1999.90;999.90;;;;;;;12.85;86.15;97905.81;10288243;28;20055;-68
2023/11/03 05:49:28;;;;;;;1999.90;999.90;;;;;;;12.72;87.66;97903.75;10288237;28;20049;-68
2023/11/03 05:54:31;;;;;;;1999.90;999.90;;;;;;;12.77;85.78;97912.72;10288008;28;20537;-68
2023/11/03 05:59:33;;;;;;;1999.90;999.90;;;;;;;12.47;87.11;97913.53;10287946;28;20051;-68
2023/11/03 06:04:36;;;;;;;1999.90;999.90;;;;;;;12.59;86.28;97925.28;10270100;28;20480;-68
2023/11/03 06:09:38;;;;;;;1999.90;999.90;;;;;;;12.42;87.55;97924.53;10287093;28;20074;-68
2023/11/03 06:14:41;;;;;;;1999.90;999.90;;;;;;;12.58;86.67;97934.16;10270485;28;20138;-68
2023/11/03 06:19:43;;;;;;;1999.90;999.90;;;;;;;12.70;86.48;97942.47;10287409;28;20074;-68
2023/11/03 06:24:46;;;;;;;1999.90;999.90;;;;;;;12.62;87.40;97956.44;10286729;28;20438;-68
2023/11/03 06:29:48;;;;;;;1999.90;999.90;;;;;;;13.10;83.76;97969.50;10286608;28;20047;-68
2023/11/03 06:34:50;;;;;;;1999.90;999.90;;;;;;;12.66;85.33;97996.28;10270024;28;20159;-68
2023/11/03 06:39:54;;;;;;;1999.90;999.90;;;;;;;13.13;82.87;97995.41;10269838;28;20047;-68
2023/11/03 06:44:56;;;;;;;1999.90;999.90;;;;;;;12.78;84.40;98011.50;10286221;28;20483;-69
2023/11/03 06:49:59;;;;;;;1999.90;999.90;;;;;;;12.81;84.18;98019.03;10286849;28;20130;-68
2023/11/03 06:55:03;;;;;;;1999.90;999.90;;;;;;;12.37;87.72;98035.25;10289379;28;20065;-68
2023/11/03 07:00:09;;;;;;;1999.90;999.90;;;;;;;12.50;87.25;98034.72;10276157;28;20054;-68
2023/11/03 07:05:13;;;;;;;1999.90;999.90;;;;;;;12.20;87.22;98046.75;10292573;28;20487;-68
2023/11/03 07:10:16;;;;;;;1999.90;999.90;;;;;;;12.63;88.32;98042.88;10292275;28;20051;-68
2023/11/03 07:15:18;;;;;;;1999.90;999.90;;;;;;;13.21;85.46;98058.41;10275993;28;20143;-68
2023/11/03 07:20:22;;;;;;;1999.90;999.90;;;;;;;12.97;86.15;98067.22;10292669;28;20130;-68
2023/11/03 07:25:25;;;;;;;1999.90;999.90;;;;;;;12.70;86.75;98064.03;10292374;28;20055;-68
2023/11/03 07:30:28;;;;;;;1999.90;999.90;;;;;;;13.15;83.83;98080.13;10292493;28;20054;-68
2023/11/03 07:35:30;;;;;;;1999.90;999.90;;;;;;;12.89;87.27;98083.81;10292269;28;20051;-68
2023/11/03 07:40:33;;;;;;;1999.90;999.90;;;;;;;13.42;84.34;98088.59;10274926;28;20051;-68
2023/11/03 07:45:35;;;;;;;1999.90;999.90;;;;;;;13.10;83.37;98096.41;10291927;28;20047;-68
2023/11/03 07:50:37;;;;;;;1999.90;999.90;;;;;;;12.98;84.98;98116.97;10291835;28;20057;-68
2023/11/03 07:55:40;;;;;;;1999.90;999.90;;;;;;;13.37;82.86;98112.75;10291154;28;20463;-68
2023/11/03 08:00:42;;;;;;;1999.90;999.90;;;;;;;12.83;83.31;98114.22;10273720;28;20407;-68
2023/11/03 08:05:45;;;;;;;1999.90;999.90;;;;;;;13.15;82.02;98120.34;10290078;28;20407;-68
2023/11/03 08:10:50;;;;;;;1999.90;999.90;;;;;;;13.34;82.46;98127.03;10290707;28;20131;-68
2023/11/03 08:15:52;;;;;;;1999.90;999.90;;;;;;;13.02;81.65;98133.19;10273793;28;20128;-68
2023/11/03 08:20:55;;;;;;;1999.90;999.90;;;;;;;13.08;83.75;98126.44;10257814;28;20051;-68
2023/11/03 08:25:57;;;;;;;1999.90;999.90;;;;;;;13.35;81.25;98127.88;10290753;28;20057;-68
2023/11/03 08:30:59;;;;;;;1999.90;999.90;;;;;;;13.74;79.39;98121.75;10272771;28;20506;-68
2023/11/03 08:36:02;;;;;;;1999.90;999.90;;;;;;;13.78;78.13;98138.81;10290434;28;20061;-68
2023/11/03 08:41:04;;;;;;;1999.90;999.90;;;;;;;13.74;80.33;98137.53;10273039;28;20074;-67
2023/11/03 08:46:07;;;;;;;1999.90;999.90;;;;;;;15.40;75.18;98144.63;10290065;28;20061;-68
2023/11/03 08:51:09;;;;;;;1999.90;999.90;;;;;;;16.39;70.84;98145.06;10272151;28;20050;-68
2023/11/03 08:56:13;;;;;;;1999.90;999.90;;;;;;;15.85;70.51;98139.25;10289843;28;20058;-68
2023/11/03 09:01:15;;;;;;;1999.90;999.90;;;;;;;16.76;70.90;98145.75;10289784;28;20078;-68
2023/11/03 09:06:18;;;;;;;1999.90;999.90;;;;;;;15.73;69.76;98156.56;10272215;28;20129;-69
2023/11/03 09:11:21;;;;;;;1999.90;999.90;;;;;;;17.03;65.94;98158.16;10272367;28;20053;-68
2023/11/03 09:16:23;;;;;;;1999.90;999.90;;;;;;;15.38;69.99;98173.00;10288165;28;20522;-68
2023/11/03 09:21:25;;;;;;;1999.90;999.90;;;;;;;15.36;67.93;98177.59;10288916;28;20058;-68
2023/11/03 09:26:28;;;;;;;1999.90;999.90;;;;;;;15.38;71.53;98178.25;10288881;28;20241;-68
2023/11/03 09:31:31;;;;;;;1999.90;999.90;;;;;;;15.59;70.12;98181.97;10271551;28;20442;-68
2023/11/03 09:36:34;;;;;;;1999.90;999.90;;;;;;;15.17;71.35;98193.97;10287974;28;20117;-68
2023/11/03 09:42:02;;;;;;;1999.90;999.90;;;;;;;15.47;70.29;98205.34;10288451;28;20078;-68
2023/11/03 09:47:06;;;;;;;1999.90;999.90;;;;;;;15.99;68.23;98206.22;10287898;28;20055;-68
2023/11/03 09:52:09;;;;;;;1999.90;999.90;;;;;;;17.71;64.80;98215.69;10271115;28;20061;-68
2023/11/03 09:57:13;;;;;;;1999.90;999.90;;;;;;;16.55;66.03;98218.75;10271583;28;20082;-68
2023/11/03 10:02:20;;;;;;;1999.90;999.90;;;;;;;16.30;68.41;98220.94;10287985;28;20062;-69
2023/11/03 10:07:24;;;;;;;1999.90;999.90;;;;;;;16.49;68.43;98219.47;10270937;28;20059;-68
2023/11/03 10:12:32;;;;;;;1999.90;999.90;;;;;;;16.63;66.86;98246.84;10271639;28;20079;-68
2023/11/03 10:17:34;;;;;;;1999.90;999.90;;;;;;;16.12;67.61;98259.13;10287458;28;20105;-68
2023/11/03 10:22:39;;;;;;;1999.90;999.90;;;;;;;15.48;69.76;98256.25;10270246;28;20047;-68
2023/11/03 10:27:41;;;;;;;1999.90;999.90;;;;;;;15.91;67.60;98257.25;10270619;28;20101;-68
2023/11/03 10:32:44;;;;;;;1999.90;999.90;;;;;;;15.97;68.79;98258.34;10293152;28;20444;-68
2023/11/03 10:37:47;;;;;;;1999.90;999.90;;;;;;;15.70;68.25;98280.88;10294014;28;20047;-68
2023/11/03 10:42:53;;;;;;;1999.90;999.90;;;;;;;15.57;68.99;98276.28;10294058;28;20130;-68
2023/11/03 10:48:13;;;;;;;1999.90;999.90;;;;;;;15.45;69.09;98291.72;10293942;28;20047;-67
2023/11/03 10:53:57;;;;;;;1999.90;999.90;;;;;;;16.49;64.05;98286.34;10294172;28;20055;-68
2023/11/03 10:59:00;;;;;;;1999.90;999.90;;;;;;;17.82;62.53;98306.94;10305099;28;20104;-68
2023/11/03 11:04:30;;;;;;;1999.90;999.90;;;;;;;16.33;65.34;98321.72;10276222;28;20472;-68
2023/11/03 11:09:42;;;;;;;1999.90;999.90;;;;;;;16.41;65.83;98328.72;10299873;28;20061;-68
2023/11/03 11:14:45;;;;;;;1999.90;999.90;;;;;;;16.95;65.89;98327.47;10276003;28;20126;-68
2023/11/03 11:19:52;;;;;;;1999.90;999.90;;;;;;;16.59;65.64;98333.56;10275166;28;20442;-68
2023/11/03 11:25:01;;;;;;;1999.90;999.90;;;;;;;16.25;65.82;98324.44;10275666;28;20051;-68
2023/11/03 11:30:14;;;;;;;1999.90;999.90;;;;;;;15.94;65.70;98325.50;10292567;28;20055;-68
2023/11/03 11:35:21;;;;;;;1999.90;999.90;;;;;;;16.52;64.80;98325.59;10292387;28;20051;-68
2023/11/03 11:40:24;;;;;;;1999.90;999.90;;;;;;;16.41;63.51;98327.88;10292130;28;20051;-68
2023/11/03 11:45:26;;;;;;;1999.90;999.90;;;;;;;16.31;63.52;98333.47;10291416;28;20078;-68
2023/11/03 11:50:29;;;;;;;1999.90;999.90;;;;;;;16.31;63.89;98352.75;10291877;28;20051;-68
2023/11/03 11:55:35;;;;;;;1999.90;999.90;;;;;;;16.29;64.71;98356.56;10273962;28;20050;-68
2023/11/03 12:00:39;;;;;;;1999.90;999.90;;;;;;;16.28;64.16;98357.59;10291467;28;20050;-68
2023/11/03 12:05:42;;;;;;;1999.90;999.90;;;;;;;16.23;63.97;98363.44;10273877;28;20073;-68
2023/11/03 12:10:50;;;;;;;1999.90;999.90;;;;;;;16.23;63.72;98362.63;10290425;28;20454;-68
2023/11/03 12:15:53;;;;;;;1999.90;999.90;;;;;;;16.36;63.01;98368.06;10291101;28;20101;-68
2023/11/03 12:21:02;;;;;;;1999.90;999.90;;;;;;;16.26;63.44;98362.25;10290828;28;20043;-68
2023/11/03 12:26:05;;;;;;;1999.90;999.90;;;;;;;16.42;62.75;98374.41;10290136;28;20442;-65
2023/11/03 12:31:08;;;;;;;1999.90;999.90;;;;;;;16.01;64.04;98380.19;10274026;28;20082;-68
2023/11/03 12:36:14;;;;;;;1999.90;999.90;;;;;;;16.20;64.78;98376.19;10273342;28;20054;-68
2023/11/03 12:41:17;;;;;;;1999.90;999.90;;;;;;;16.69;64.44;98386.09;10290174;28;20051;-68
2023/11/03 12:46:19;;;;;;;1999.90;999.90;;;;;;;16.77;62.57;98382.53;10290550;28;20051;-68
2023/11/03 12:51:30;;;;;;;1999.90;999.90;;;;;;;16.45;64.82;98389.91;10289273;28;20051;-68
2023/11/03 12:56:45;;;;;;;1999.90;999.90;;;;;;;16.03;66.12;98396.66;10272796;28;20100;-68
2023/11/03 13:01:52;;;;;;;1999.90;999.90;;;;;;;16.32;63.89;98398.47;10289593;28;20076;-68
2023/11/03 13:06:57;;;;;;;1999.90;999.90;;;;;;;15.90;65.43;98392.84;10272512;28;20054;-68
2023/11/03 13:12:02;;;;;;;1999.90;999.90;;;;;;;16.95;62.61;98395.38;10271847;28;20054;-68
2023/11/03 13:17:04;;;;;;;1999.90;999.90;;;;;;;16.19;65.24;98400.91;10288548;28;20426;-68
2023/11/03 13:22:08;;;;;;;1999.90;999.90;;;;;;;16.29;64.46;98404.09;10288979;28;20050;-68
2023/11/03 13:27:11;;;;;;;1999.90;999.90;;;;;;;16.04;64.11;98404.41;10288900;28;20066;-68
2023/11/03 13:32:13;;;;;;;1999.90;999.90;;;;;;;16.32;64.83;98406.38;10255846;28;20084;-68
2023/11/03 13:37:16;;;;;;;1999.90;999.90;;;;;;;16.10;65.40;98416.03;10288177;28;20058;-68
2023/11/03 13:42:19;;;;;;;1999.90;999.90;;;;;;;15.93;64.78;98424.13;10271312;28;20054;-68
2023/11/03 13:47:22;;;;;;;1999.90;999.90;;;;;;;16.18;64.75;98425.69;10287784;28;20426;-68
2023/11/03 13:52:25;;;;;;;1999.90;999.90;;;;;;;15.59;65.12;98428.03;10288240;28;20073;-68
2023/11/03 13:57:27;;;;;;;1999.90;999.90;;;;;;;15.86;64.60;98435.59;10288076;28;20050;-68
2023/11/03 14:02:30;;;;;;;1999.90;999.90;;;;;;;15.32;66.40;98428.59;10287924;28;20053;-68
2023/11/03 14:07:33;;;;;;;1999.90;999.90;;;;;;;16.44;62.48;98449.00;10293813;28;20063;-68
2023/11/03 14:12:38;;;;;;;1999.90;999.90;;;;;;;15.68;63.67;98441.16;10277825;28;20134;-68
2023/11/03 14:17:41;;;;;;;1999.90;999.90;;;;;;;15.42;63.20;98445.00;10294219;28;20566;-68
2023/11/03 14:22:44;;;;;;;1999.90;999.90;;;;;;;15.87;61.66;98442.50;10333178;23;20054;-61
2023/11/03 14:27:48;;;;;;;1999.90;999.90;;;;;;;15.48;62.82;98454.00;10334740;28;20095;-63
2023/11/03 14:32:51;;;;;;;1999.90;999.90;;;;;;;15.38;61.46;98463.00;10334595;28;20054;-64
2023/11/03 14:37:54;;;;;;;1999.90;999.90;;;;;;;15.54;62.89;98463.88;10334459;28;20078;-64
2023/11/03 14:42:58;;;;;;;1999.90;999.90;;;;;;;15.66;61.10;98470.34;10316363;28;20050;-63
2023/11/03 14:48:01;;;;;;;1999.90;999.90;;;;;;;15.70;61.81;98468.16;10334081;28;20133;-64
2023/11/03 14:53:03;;;;;;;1999.90;999.90;;;;;;;14.99;64.41;98468.34;10333978;28;20058;-63
2023/11/03 14:58:06;;;;;;;1999.90;999.90;;;;;;;15.31;63.61;98469.94;10333764;28;20092;-63
2023/11/03 15:03:09;;;;;;;1999.90;999.90;;;;;;;15.58;60.97;98481.81;10333615;28;20054;-63
2023/11/03 15:08:12;;;;;;;1999.90;999.90;;;;;;;15.68;61.20;98475.44;10333448;28;20050;-63
2023/11/03 15:13:15;;;;;;;1999.90;999.90;;;;;;;15.53;60.83;98473.59;10332652;28;20109;-63
2023/11/03 15:18:19;;;;;;;1999.90;999.90;;;;;;;15.49;61.19;98472.28;10332591;28;20050;-63
2023/11/03 15:23:23;;;;;;;1999.90;999.90;;;;;;;15.31;63.15;98484.94;10332384;28;20081;-63
2023/11/03 15:28:26;;;;;;;1999.90;999.90;;;;;;;15.40;63.17;98491.81;10332831;28;20129;-63
2023/11/03 15:33:28;;;;;;;1999.90;999.90;;;;;;;15.15;63.85;98497.25;10315184;28;20050;-63
2023/11/03 15:38:31;;;;;;;1999.90;999.90;;;;;;;14.89;65.52;98500.16;10332426;28;20051;-63
2023/11/03 15:43:34;;;;;;;1999.90;999.90;;;;;;;15.02;65.74;98504.88;10332341;28;20099;-63
2023/11/03 15:48:38;;;;;;;1999.90;999.90;;;;;;;14.57;65.62;98519.53;10332166;28;20046;-63
2023/11/03 15:53:41;;;;;;;1999.90;999.90;;;;;;;15.16;65.66;98517.34;10332263;28;20050;-63
2023/11/03 15:58:44;;;;;;;1999.90;999.90;;;;;;;14.84;65.36;98523.56;10331811;28;20042;-63
2023/11/03 16:03:46;;;;;;;1999.90;999.90;;;;;;;14.76;66.52;98526.22;10331750;28;20051;-63
2023/11/03 16:08:49;;;;;;;1999.90;999.90;;;;;;;14.06;65.20;98533.75;10330976;28;20461;-63
2023/11/03 16:13:52;;;;;;;1999.90;999.90;;;;;;;14.79;65.82;98531.16;10331473;28;20141;-63
2023/11/03 16:18:55;;;;;;;1999.90;999.90;;;;;;;14.61;64.83;98529.59;10331276;28;20056;-63
2023/11/03 16:23:59;;;;;;;1999.90;999.90;;;;;;;14.50;65.58;98540.44;10330793;28;20058;-63
2023/11/03 16:29:02;;;;;;;1999.90;999.90;;;;;;;14.43;66.44;98542.91;10330418;28;20051;-63
2023/11/03 16:34:05;;;;;;;1999.90;999.90;;;;;;;14.05;66.41;98549.72;10313444;28;20522;-63
2023/11/03 16:39:08;;;;;;;1999.90;999.90;;;;;;;14.25;65.80;98550.19;10330559;28;20051;-63
2023/11/03 16:44:10;;;;;;;1999.90;999.90;;;;;;;14.34;66.81;98556.25;10329861;28;20058;-63
2023/11/03 16:49:13;;;;;;;1999.90;999.90;;;;;;;14.19;67.29;98561.38;10330288;28;20125;-63
2023/11/03 16:54:16;;;;;;;1999.90;999.90;;;;;;;14.10;66.43;98560.56;10312413;28;20458;-63
2023/11/03 16:59:20;;;;;;;1999.90;999.90;;;;;;;13.86;66.05;98567.47;10312655;28;20056;-63
2023/11/03 17:04:22;;;;;;;1999.90;999.90;;;;;;;14.47;65.19;98570.56;10329316;28;20496;-63
2023/11/03 17:09:27;;;;;;;1999.90;999.90;;;;;;;14.28;66.51;98576.19;10329637;28;20125;-63
2023/11/03 17:14:31;;;;;;;1999.90;999.90;;;;;;;14.18;65.05;98568.44;10329502;28;20144;-63
2023/11/03 17:19:33;;;;;;;1999.90;999.90;;;;;;;14.48;64.01;98574.81;10312910;28;20054;-63
2023/11/03 17:24:36;;;;;;;1999.90;999.90;;;;;;;13.52;66.04;98584.19;10329104;28;20062;-63
2023/11/03 17:29:39;;;;;;;1999.90;999.90;;;;;;;14.40;65.16;98579.28;10328509;28;20046;-63
2023/11/03 17:34:43;;;;;;;1999.90;999.90;;;;;;;14.28;65.83;98581.44;10328934;28;20129;-63
2023/11/03 17:39:45;;;;;;;1999.90;999.90;;;;;;;14.08;66.06;98586.22;10327848;28;20100;-63
2023/11/03 17:44:48;;;;;;;1999.90;999.90;;;;;;;14.34;65.72;98585.22;10327999;28;20054;-63
2023/11/03 17:49:50;;;;;;;1999.90;999.90;;;;;;;13.83;65.28;98593.28;10327641;28;20051;-63
2023/11/03 17:54:53;;;;;;;1999.90;999.90;;;;;;;13.57;67.94;98591.59;10328373;28;20050;-63
2023/11/03 17:59:55;;;;;;;1999.90;999.90;;;;;;;13.76;68.08;98593.09;10328196;28;20100;-63
2023/11/03 18:04:58;;;;;;;1999.90;999.90;;;;;;;13.66;67.78;98597.69;10311051;28;20050;-63
2023/11/03 18:10:00;;;;;;;1999.90;999.90;;;;;;;13.71;67.21;98592.75;10327990;28;20133;-63
2023/11/03 18:15:04;;;;;;;1999.90;999.90;;;;;;;13.89;67.54;98603.16;10327968;28;20046;-63
2023/11/03 18:20:09;;;;;;;1999.90;999.90;;;;;;;13.44;68.66;98599.13;10310300;28;20051;-63
2023/11/03 18:25:12;;;;;;;1999.90;999.90;;;;;;;13.86;66.48;98596.41;10327716;28;20129;-63
2023/11/03 18:30:14;;;;;;;1999.90;999.90;;;;;;;13.49;67.67;98597.66;10327598;28;20046;-63
2023/11/03 18:35:17;;;;;;;1999.90;999.90;;;;;;;13.66;65.95;98600.31;10327414;28;20050;-63
2023/11/03 18:40:22;;;;;;;1999.90;999.90;;;;;;;13.20;66.57;98613.78;10327265;28;20042;-63
2023/11/03 18:45:25;;;;;;;1999.90;999.90;;;;;;;13.22;67.48;98613.63;10326515;28;20395;-63
2023/11/03 18:50:32;;;;;;;1999.90;999.90;;;;;;;13.09;67.71;98617.50;10329157;28;20054;-63
2023/11/03 18:55:54;;;;;;;1999.90;999.90;;;;;;;13.17;65.43;98619.38;10333285;28;20050;-63
2023/11/03 19:01:17;;;;;;;1999.90;999.90;;;;;;;12.97;66.03;98618.78;10333764;28;20046;-63
2023/11/03 19:06:22;;;;;;;1999.90;999.90;;;;;;;12.88;66.86;98610.03;10333296;28;20058;-63
2023/11/03 19:11:28;;;;;;;1999.90;999.90;;;;;;;13.51;66.00;98602.75;10333996;28;20051;-63
2023/11/03 19:16:30;;;;;;;1999.90;999.90;;;;;;;12.89;65.63;98608.22;10299338;28;20061;-63
2023/11/03 19:21:32;;;;;;;1999.90;999.90;;;;;;;13.19;65.92;98610.31;10332186;28;20407;-63
2023/11/03 19:26:35;;;;;;;1999.90;999.90;;;;;;;13.65;63.88;98617.91;10332933;28;20058;-63
2023/11/03 19:31:38;;;;;;;1999.90;999.90;;;;;;;14.04;63.69;98619.13;10332826;28;20054;-63
2023/11/03 19:36:42;;;;;;;1999.90;999.90;;;;;;;12.93;65.68;98622.72;10331958;28;20050;-63
2023/11/03 19:41:45;;;;;;;1999.90;999.90;;;;;;;13.07;66.57;98616.84;10332268;28;20517;-63
2023/11/03 19:46:47;;;;;;;1999.90;999.90;;;;;;;13.48;64.83;98624.09;10332258;28;20046;-63
2023/11/03 19:51:50;;;;;;;1999.90;999.90;;;;;;;12.95;65.97;98624.19;10332413;28;20308;-63
2023/11/03 19:56:53;;;;;;;1999.90;999.90;;;;;;;12.98;68.09;98626.50;10331977;28;20054;-63
2023/11/03 20:01:55;;;;;;;1999.90;999.90;;;;;;;12.99;67.30;98612.41;10331828;28;20050;-64
2023/11/03 20:06:59;;;;;;;1999.90;999.90;;;;;;;12.98;67.24;98620.44;10332170;28;20133;-63
2023/11/03 20:12:03;;;;;;;1999.90;999.90;;;;;;;12.64;65.95;98621.19;10331567;28;20049;-63
2023/11/03 20:17:06;;;;;;;1999.90;999.90;;;;;;;12.70;67.16;98614.53;10331191;28;20078;-63
2023/11/03 20:22:09;;;;;;;1999.90;999.90;;;;;;;12.54;66.35;98618.69;10313890;28;20074;-63
2023/11/03 20:27:12;;;;;;;1999.90;999.90;;;;;;;12.81;68.59;98612.47;10313922;28;20050;-63
2023/11/03 20:32:15;;;;;;;1999.90;999.90;;;;;;;12.27;70.47;98623.09;10330975;28;20057;-63
2023/11/03 20:37:17;;;;;;;1999.90;999.90;;;;;;;12.48;68.53;98626.38;10330685;28;20050;-63
2023/11/03 20:42:20;;;;;;;1999.90;999.90;;;;;;;12.06;69.98;98614.72;10329938;28;20072;-63
2023/11/03 20:47:22;;;;;;;1999.90;999.90;;;;;;;12.65;68.00;98607.09;10330419;28;20095;-63
2023/11/03 20:52:25;;;;;;;1999.90;999.90;;;;;;;12.57;68.09;98597.38;10330409;28;20056;-63
2023/11/03 20:57:27;;;;;;;1999.90;999.90;;;;;;;12.59;68.66;98599.84;10329473;28;20384;-63
2023/11/03 21:02:30;;;;;;;1999.90;999.90;;;;;;;12.47;67.26;98596.66;10330306;28;20050;-63
2023/11/03 21:07:32;;;;;;;1999.90;999.90;;;;;;;12.53;68.14;98588.16;10312567;28;20046;-63
2023/11/03 21:12:34;;;;;;;1999.90;999.90;;;;;;;12.47;69.25;98598.47;10328385;28;20072;-63
2023/11/03 21:17:38;;;;;;;1999.90;999.90;;;;;;;12.55;69.21;98601.16;10329449;28;20082;-63
2023/11/03 21:22:42;;;;;;;1999.90;999.90;;;;;;;12.54;69.60;98604.72;10311986;28;20069;-63
2023/11/03 21:27:44;;;;;;;1999.90;999.90;;;;;;;12.55;68.27;98607.22;10329118;28;20441;-63
2023/11/03 21:32:47;;;;;;;1999.90;999.90;;;;;;;12.23;70.00;98597.31;10328431;28;20112;-63
2023/11/03 21:37:50;;;;;;;1999.90;999.90;;;;;;;12.25;69.14;98597.97;10328271;28;20499;-63
2023/11/03 21:42:52;;;;;;;1999.90;999.90;;;;;;;12.53;69.82;98587.34;10328092;28;20053;-63
2023/11/03 21:47:54;;;;;;;1999.90;999.90;;;;;;;12.00;71.39;98582.06;10328044;28;20130;-63
2023/11/03 21:52:57;;;;;;;1999.90;999.90;;;;;;;12.39;70.45;98580.84;10311446;28;20047;-63
2023/11/03 21:58:00;;;;;;;1999.90;999.90;;;;;;;11.92;70.62;98568.03;10328423;28;20063;-63
2023/11/03 22:03:02;;;;;;;1999.90;999.90;;;;;;;12.46;68.66;98568.78;10328082;28;20129;-63
2023/11/03 22:08:05;;;;;;;1999.90;999.90;;;;;;;11.92;69.33;98568.88;10328079;28;20082;-63
2023/11/03 22:13:08;;;;;;;1999.90;999.90;;;;;;;12.01;70.13;98567.13;10310803;28;20130;-63